You are not logged in, Click here to log in
ICAO: RJSN Country: 日本新潟
Latitude: 37.9523 Longitude: 139.113
Total Arrivals: 6 Total Departures: 8
Latest Arrival: GEJ613 (RJCH-RJSN)Robert. Chou Latest Departure: AE1810 (RJSN-RJGG)Robert. Chou
Scenery:
METAR : RJSN 210700Z 36007KT 9999 FEW020 BKN100 28/24 Q1008

新潟空港KIJ